sensor_id;sensor_type;location;lat;lon;timestamp;pressure;altitude;pressure_sealevel;temperature;humidity
28701;BME280;15877;52.344;16.790;2022-10-26T00:00:30;100901.19;;;13.74;75.50
28701;BME280;15877;52.344;16.790;2022-10-26T00:03:22;100905.27;;;13.70;76.15
28701;BME280;15877;52.344;16.790;2022-10-26T00:05:54;100905.02;;;13.74;75.01
28701;BME280;15877;52.344;16.790;2022-10-26T00:08:26;100907.74;;;13.75;73.98
28701;BME280;15877;52.344;16.790;2022-10-26T00:10:58;100915.10;;;13.71;73.80
28701;BME280;15877;52.344;16.790;2022-10-26T00:13:31;100912.92;;;13.69;74.06
28701;BME280;15877;52.344;16.790;2022-10-26T00:16:08;100916.14;;;13.66;74.15
28701;BME280;15877;52.344;16.790;2022-10-26T00:18:42;100915.62;;;13.64;74.43
28701;BME280;15877;52.344;16.790;2022-10-26T00:21:14;100924.60;;;13.63;74.03
28701;BME280;15877;52.344;16.790;2022-10-26T00:23:46;100923.91;;;13.60;73.55
28701;BME280;15877;52.344;16.790;2022-10-26T00:26:18;100930.12;;;13.59;73.56
28701;BME280;15877;52.344;16.790;2022-10-26T00:28:53;100916.12;;;13.47;73.60
28701;BME280;15877;52.344;16.790;2022-10-26T00:31:25;100929.23;;;13.54;73.04
28701;BME280;15877;52.344;16.790;2022-10-26T00:33:58;100931.68;;;13.48;73.01
28701;BME280;15877;52.344;16.790;2022-10-26T00:36:30;100936.02;;;13.45;73.00
28701;BME280;15877;52.344;16.790;2022-10-26T00:39:02;100924.86;;;13.33;73.13
28701;BME280;15877;52.344;16.790;2022-10-26T00:41:34;100937.45;;;13.36;73.13
28701;BME280;15877;52.344;16.790;2022-10-26T00:47:09;100934.86;;;13.26;73.65
28701;BME280;15877;52.344;16.790;2022-10-26T00:49:46;100931.50;;;13.30;73.28
28701;BME280;15877;52.344;16.790;2022-10-26T00:52:20;100928.45;;;13.24;73.47
28701;BME280;15877;52.344;16.790;2022-10-26T00:54:52;100926.13;;;13.24;74.66
28701;BME280;15877;52.344;16.790;2022-10-26T00:57:25;100926.87;;;13.25;74.00
28701;BME280;15877;52.344;16.790;2022-10-26T00:59:58;100929.16;;;13.24;73.74
28701;BME280;15877;52.344;16.790;2022-10-26T01:02:31;100927.91;;;13.21;73.62
28701;BME280;15877;52.344;16.790;2022-10-26T01:05:05;100924.85;;;13.15;74.33
28701;BME280;15877;52.344;16.790;2022-10-26T01:07:38;100923.80;;;13.19;74.54
28701;BME280;15877;52.344;16.790;2022-10-26T01:10:11;100923.14;;;13.17;74.30
28701;BME280;15877;52.344;16.790;2022-10-26T01:12:43;100922.55;;;13.16;73.97
28701;BME280;15877;52.344;16.790;2022-10-26T01:15:16;100928.70;;;13.17;74.32
28701;BME280;15877;52.344;16.790;2022-10-26T01:17:55;100927.73;;;13.15;74.17
28701;BME280;15877;52.344;16.790;2022-10-26T01:20:43;100927.94;;;13.14;74.40
28701;BME280;15877;52.344;16.790;2022-10-26T01:23:28;100925.34;;;13.15;74.69
28701;BME280;15877;52.344;16.790;2022-10-26T01:29:23;100931.77;;;13.11;75.20
28701;BME280;15877;52.344;16.790;2022-10-26T01:32:05;100933.16;;;13.13;75.60
28701;BME280;15877;52.344;16.790;2022-10-26T01:34:43;100929.55;;;13.12;75.65
28701;BME280;15877;52.344;16.790;2022-10-26T01:37:21;100927.47;;;13.15;75.89
28701;BME280;15877;52.344;16.790;2022-10-26T01:39:58;100928.10;;;13.18;75.66
28701;BME280;15877;52.344;16.790;2022-10-26T01:42:35;100930.84;;;13.20;75.74
28701;BME280;15877;52.344;16.790;2022-10-26T01:45:12;100930.63;;;13.17;76.28
28701;BME280;15877;52.344;16.790;2022-10-26T01:47:46;100926.98;;;13.03;77.72
28701;BME280;15877;52.344;16.790;2022-10-26T01:50:20;100925.66;;;13.12;77.85
28701;BME280;15877;52.344;16.790;2022-10-26T01:52:54;100919.90;;;13.11;78.38
28701;BME280;15877;52.344;16.790;2022-10-26T01:55:49;100923.02;;;13.15;78.39
28701;BME280;15877;52.344;16.790;2022-10-26T01:58:39;100922.29;;;13.23;77.37
28701;BME280;15877;52.344;16.790;2022-10-26T02:01:27;100927.80;;;13.28;77.11
28701;BME280;15877;52.344;16.790;2022-10-26T02:04:08;100922.54;;;13.24;77.65
28701;BME280;15877;52.344;16.790;2022-10-26T02:06:50;100919.86;;;13.25;77.71
28701;BME280;15877;52.344;16.790;2022-10-26T02:09:31;100916.56;;;13.28;77.40
28701;BME280;15877;52.344;16.790;2022-10-26T02:12:13;100914.50;;;13.28;77.12
28701;BME280;15877;52.344;16.790;2022-10-26T02:14:53;100913.57;;;13.30;76.74
28701;BME280;15877;52.344;16.790;2022-10-26T02:17:32;100914.14;;;13.31;76.30
28701;BME280;15877;52.344;16.790;2022-10-26T02:20:09;100912.20;;;13.29;76.08
28701;BME280;15877;52.344;16.790;2022-10-26T02:22:47;100913.73;;;13.22;76.05
28701;BME280;15877;52.344;16.790;2022-10-26T02:25:25;100919.55;;;13.21;76.14
28701;BME280;15877;52.344;16.790;2022-10-26T02:28:02;100913.22;;;13.20;76.35
28701;BME280;15877;52.344;16.790;2022-10-26T02:30:36;100914.36;;;13.14;76.30
28701;BME280;15877;52.344;16.790;2022-10-26T02:33:11;100916.05;;;13.10;76.50
28701;BME280;15877;52.344;16.790;2022-10-26T02:35:47;100916.15;;;13.12;76.05
28701;BME280;15877;52.344;16.790;2022-10-26T02:38:21;100915.88;;;13.05;75.69
28701;BME280;15877;52.344;16.790;2022-10-26T02:40:55;100919.33;;;13.06;75.61
28701;BME280;15877;52.344;16.790;2022-10-26T02:43:28;100910.79;;;13.02;75.23
28701;BME280;15877;52.344;16.790;2022-10-26T02:46:09;100912.55;;;13.02;74.60
28701;BME280;15877;52.344;16.790;2022-10-26T02:48:43;100912.58;;;13.00;73.95
28701;BME280;15877;52.344;16.790;2022-10-26T02:51:19;100916.75;;;12.99;73.45
28701;BME280;15877;52.344;16.790;2022-10-26T02:53:59;100920.23;;;12.97;73.08
28701;BME280;15877;52.344;16.790;2022-10-26T02:56:38;100917.56;;;12.83;72.55
28701;BME280;15877;52.344;16.790;2022-10-26T02:59:11;100931.89;;;12.86;72.73
28701;BME280;15877;52.344;16.790;2022-10-26T03:01:44;100934.58;;;12.81;73.13
28701;BME280;15877;52.344;16.790;2022-10-26T03:04:17;100939.13;;;12.79;73.49
28701;BME280;15877;52.344;16.790;2022-10-26T03:06:53;100941.35;;;12.75;73.50
28701;BME280;15877;52.344;16.790;2022-10-26T03:09:26;100945.32;;;12.74;73.91
28701;BME280;15877;52.344;16.790;2022-10-26T03:11:58;100946.63;;;12.75;73.90
28701;BME280;15877;52.344;16.790;2022-10-26T03:14:30;100947.02;;;12.74;73.68
28701;BME280;15877;52.344;16.790;2022-10-26T03:17:02;100945.86;;;12.72;73.65
28701;BME280;15877;52.344;16.790;2022-10-26T03:19:34;100945.59;;;12.71;73.81
28701;BME280;15877;52.344;16.790;2022-10-26T03:22:07;100947.00;;;12.71;73.81
28701;BME280;15877;52.344;16.790;2022-10-26T03:24:39;100946.27;;;12.70;73.88
28701;BME280;15877;52.344;16.790;2022-10-26T03:27:11;100944.79;;;12.68;73.57
28701;BME280;15877;52.344;16.790;2022-10-26T03:29:43;100948.98;;;12.67;73.37
28701;BME280;15877;52.344;16.790;2022-10-26T03:32:15;100951.13;;;12.66;73.28
28701;BME280;15877;52.344;16.790;2022-10-26T03:34:47;100950.91;;;12.63;73.00
28701;BME280;15877;52.344;16.790;2022-10-26T03:37:19;100950.03;;;12.60;72.85
28701;BME280;15877;52.344;16.790;2022-10-26T03:39:51;100948.13;;;12.57;73.20
28701;BME280;15877;52.344;16.790;2022-10-26T03:42:24;100949.99;;;12.55;73.00
28701;BME280;15877;52.344;16.790;2022-10-26T03:44:57;100951.36;;;12.55;72.87
28701;BME280;15877;52.344;16.790;2022-10-26T03:47:30;100936.53;;;12.47;72.38
28701;BME280;15877;52.344;16.790;2022-10-26T03:50:02;100939.73;;;12.47;72.03
28701;BME280;15877;52.344;16.790;2022-10-26T03:52:40;100949.25;;;12.53;71.96
28701;BME280;15877;52.344;16.790;2022-10-26T03:55:12;100936.45;;;12.43;72.22
28701;BME280;15877;52.344;16.790;2022-10-26T03:57:45;100949.11;;;12.51;71.66
28701;BME280;15877;52.344;16.790;2022-10-26T04:00:19;100949.52;;;12.48;72.03
28701;BME280;15877;52.344;16.790;2022-10-26T04:02:57;100947.77;;;12.48;72.07
28701;BME280;15877;52.344;16.790;2022-10-26T04:05:29;100953.70;;;12.46;72.24
28701;BME280;15877;52.344;16.790;2022-10-26T04:08:02;100952.50;;;12.45;71.97
28701;BME280;15877;52.344;16.790;2022-10-26T04:10:37;100948.55;;;12.44;72.08
28701;BME280;15877;52.344;16.790;2022-10-26T04:13:09;100955.83;;;12.41;72.25
28701;BME280;15877;52.344;16.790;2022-10-26T04:15:42;100957.36;;;12.39;72.26
28701;BME280;15877;52.344;16.790;2022-10-26T04:18:14;100952.45;;;12.37;72.35
28701;BME280;15877;52.344;16.790;2022-10-26T04:20:45;100955.27;;;12.35;72.52
28701;BME280;15877;52.344;16.790;2022-10-26T04:23:18;100936.61;;;12.26;72.87
28701;BME280;15877;52.344;16.790;2022-10-26T04:25:50;100951.65;;;12.33;72.96
28701;BME280;15877;52.344;16.790;2022-10-26T04:28:23;100955.38;;;12.32;73.18
28701;BME280;15877;52.344;16.790;2022-10-26T04:30:55;100950.19;;;12.28;73.43
28701;BME280;15877;52.344;16.790;2022-10-26T04:33:27;100954.64;;;12.28;73.72
28701;BME280;15877;52.344;16.790;2022-10-26T04:36:03;100954.52;;;12.25;73.40
28701;BME280;15877;52.344;16.790;2022-10-26T04:38:35;100955.48;;;12.26;73.54
28701;BME280;15877;52.344;16.790;2022-10-26T04:41:07;100958.33;;;12.25;73.23
28701;BME280;15877;52.344;16.790;2022-10-26T04:43:39;100959.63;;;12.23;72.85
28701;BME280;15877;52.344;16.790;2022-10-26T04:46:11;100960.16;;;12.18;72.99
28701;BME280;15877;52.344;16.790;2022-10-26T04:48:46;100955.13;;;12.17;72.98
28701;BME280;15877;52.344;16.790;2022-10-26T04:51:18;100956.51;;;12.19;72.71
28701;BME280;15877;52.344;16.790;2022-10-26T04:53:50;100958.07;;;12.17;72.65
28701;BME280;15877;52.344;16.790;2022-10-26T04:56:23;100959.13;;;12.15;72.74
28701;BME280;15877;52.344;16.790;2022-10-26T04:58:56;100957.78;;;11.93;72.86
28701;BME280;15877;52.344;16.790;2022-10-26T05:01:28;100955.33;;;12.03;73.07
28701;BME280;15877;52.344;16.790;2022-10-26T05:04:04;100955.41;;;12.06;72.83
28701;BME280;15877;52.344;16.790;2022-10-26T05:06:36;100961.98;;;11.98;72.25
28701;BME280;15877;52.344;16.790;2022-10-26T05:09:08;100956.90;;;11.99;72.37
28701;BME280;15877;52.344;16.790;2022-10-26T05:11:40;100965.08;;;11.86;72.56
28701;BME280;15877;52.344;16.790;2022-10-26T05:14:12;100969.13;;;11.79;72.83
28701;BME280;15877;52.344;16.790;2022-10-26T05:16:44;100970.47;;;11.79;72.92
28701;BME280;15877;52.344;16.790;2022-10-26T05:19:16;100969.73;;;11.81;72.98
28701;BME280;15877;52.344;16.790;2022-10-26T05:21:48;100962.77;;;11.76;73.28
28701;BME280;15877;52.344;16.790;2022-10-26T05:24:23;100973.95;;;11.72;74.26
28701;BME280;15877;52.344;16.790;2022-10-26T05:26:55;100970.52;;;11.72;75.01
28701;BME280;15877;52.344;16.790;2022-10-26T05:29:32;100972.75;;;11.75;75.07
28701;BME280;15877;52.344;16.790;2022-10-26T05:32:04;100972.44;;;11.57;76.21
28701;BME280;15877;52.344;16.790;2022-10-26T05:34:37;100973.61;;;11.71;76.22
28701;BME280;15877;52.344;16.790;2022-10-26T05:37:11;100975.84;;;11.77;76.20
28701;BME280;15877;52.344;16.790;2022-10-26T05:39:43;100975.64;;;11.76;76.87
28701;BME280;15877;52.344;16.790;2022-10-26T05:42:15;100975.83;;;11.77;77.55
28701;BME280;15877;52.344;16.790;2022-10-26T05:44:48;100978.29;;;11.73;77.82
28701;BME280;15877;52.344;16.790;2022-10-26T05:47:19;100982.41;;;11.89;77.33
28701;BME280;15877;52.344;16.790;2022-10-26T05:49:52;100980.55;;;11.87;77.30
28701;BME280;15877;52.344;16.790;2022-10-26T05:52:24;100978.83;;;11.91;77.53
28701;BME280;15877;52.344;16.790;2022-10-26T05:54:56;100977.48;;;11.95;77.27
28701;BME280;15877;52.344;16.790;2022-10-26T05:57:32;100988.81;;;11.96;77.11
28701;BME280;15877;52.344;16.790;2022-10-26T06:00:11;100992.23;;;11.90;77.09
28701;BME280;15877;52.344;16.790;2022-10-26T06:02:57;100998.76;;;11.97;77.00
28701;BME280;15877;52.344;16.790;2022-10-26T06:05:36;100997.70;;;12.02;76.78
28701;BME280;15877;52.344;16.790;2022-10-26T06:08:10;101001.30;;;12.08;76.48
28701;BME280;15877;52.344;16.790;2022-10-26T06:10:43;101004.86;;;12.11;76.04
28701;BME280;15877;52.344;16.790;2022-10-26T06:13:17;101007.67;;;12.16;75.99
28701;BME280;15877;52.344;16.790;2022-10-26T06:16:00;101009.02;;;12.15;75.95
28701;BME280;15877;52.344;16.790;2022-10-26T06:18:41;101011.16;;;12.08;76.38
28701;BME280;15877;52.344;16.790;2022-10-26T06:21:30;101007.91;;;12.06;77.03
28701;BME280;15877;52.344;16.790;2022-10-26T06:24:11;101013.96;;;12.06;77.50
28701;BME280;15877;52.344;16.790;2022-10-26T06:26:50;101021.33;;;11.95;78.48
28701;BME280;15877;52.344;16.790;2022-10-26T06:29:35;101022.56;;;12.00;78.59
28701;BME280;15877;52.344;16.790;2022-10-26T06:32:09;101026.79;;;12.03;78.99
28701;BME280;15877;52.344;16.790;2022-10-26T06:34:46;101030.69;;;12.10;79.06
28701;BME280;15877;52.344;16.790;2022-10-26T06:37:20;101015.59;;;12.14;78.78
28701;BME280;15877;52.344;16.790;2022-10-26T06:39:53;101027.52;;;12.33;78.61
28701;BME280;15877;52.344;16.790;2022-10-26T06:42:27;101034.21;;;12.40;78.76
28701;BME280;15877;52.344;16.790;2022-10-26T06:45:01;101032.20;;;12.45;78.83
28701;BME280;15877;52.344;16.790;2022-10-26T06:47:39;101021.56;;;12.44;78.87
28701;BME280;15877;52.344;16.790;2022-10-26T06:50:24;101031.64;;;12.52;79.18
28701;BME280;15877;52.344;16.790;2022-10-26T06:53:12;101036.30;;;12.54;79.93
28701;BME280;15877;52.344;16.790;2022-10-26T06:55:49;101036.09;;;12.61;79.75
28701;BME280;15877;52.344;16.790;2022-10-26T06:58:22;101041.40;;;12.68;79.87
28701;BME280;15877;52.344;16.790;2022-10-26T07:00:57;101038.20;;;12.66;80.01
28701;BME280;15877;52.344;16.790;2022-10-26T07:03:29;101048.64;;;12.57;80.95
28701;BME280;15877;52.344;16.790;2022-10-26T07:06:01;101054.95;;;12.64;81.12
28701;BME280;15877;52.344;16.790;2022-10-26T07:08:33;101053.14;;;12.76;81.03
28701;BME280;15877;52.344;16.790;2022-10-26T07:11:06;101048.75;;;12.82;81.16
28701;BME280;15877;52.344;16.790;2022-10-26T07:13:39;101052.64;;;12.85;81.40
28701;BME280;15877;52.344;16.790;2022-10-26T07:16:11;101052.83;;;12.94;80.88
28701;BME280;15877;52.344;16.790;2022-10-26T07:18:43;101039.88;;;12.92;81.36
28701;BME280;15877;52.344;16.790;2022-10-26T07:21:15;101054.05;;;13.04;81.31
28701;BME280;15877;52.344;16.790;2022-10-26T07:23:47;101059.06;;;13.04;81.49
28701;BME280;15877;52.344;16.790;2022-10-26T07:26:19;101060.23;;;13.10;81.89
28701;BME280;15877;52.344;16.790;2022-10-26T07:28:52;101057.52;;;13.17;81.84
28701;BME280;15877;52.344;16.790;2022-10-26T07:31:24;101066.47;;;13.14;82.23
28701;BME280;15877;52.344;16.790;2022-10-26T07:33:56;101060.79;;;13.21;82.25
28701;BME280;15877;52.344;16.790;2022-10-26T07:36:29;101064.05;;;13.13;82.70
28701;BME280;15877;52.344;16.790;2022-10-26T07:39:01;101065.92;;;12.98;83.74
28701;BME280;15877;52.344;16.790;2022-10-26T07:41:34;101067.66;;;12.87;85.06
28701;BME280;15877;52.344;16.790;2022-10-26T07:44:06;101063.02;;;13.03;84.35
28701;BME280;15877;52.344;16.790;2022-10-26T07:46:39;101061.65;;;12.99;84.94
28701;BME280;15877;52.344;16.790;2022-10-26T07:49:11;101064.79;;;13.22;84.38
28701;BME280;15877;52.344;16.790;2022-10-26T07:51:48;101069.25;;;13.18;84.95
28701;BME280;15877;52.344;16.790;2022-10-26T07:54:21;101072.15;;;13.25;85.02
28701;BME280;15877;52.344;16.790;2022-10-26T07:56:53;101068.13;;;13.28;85.03
28701;BME280;15877;52.344;16.790;2022-10-26T07:59:25;101068.87;;;13.41;84.45
28701;BME280;15877;52.344;16.790;2022-10-26T08:01:57;101074.60;;;13.44;84.48
28701;BME280;15877;52.344;16.790;2022-10-26T08:04:30;101078.27;;;13.52;84.51
28701;BME280;15877;52.344;16.790;2022-10-26T08:07:02;101081.91;;;13.58;84.10
28701;BME280;15877;52.344;16.790;2022-10-26T08:09:34;101075.33;;;13.60;83.86
28701;BME280;15877;52.344;16.790;2022-10-26T08:12:07;101078.44;;;13.60;84.10
28701;BME280;15877;52.344;16.790;2022-10-26T08:14:39;101080.58;;;13.63;84.48
28701;BME280;15877;52.344;16.790;2022-10-26T08:17:11;101084.48;;;13.71;84.66
28701;BME280;15877;52.344;16.790;2022-10-26T08:19:43;101084.38;;;13.79;84.62
28701;BME280;15877;52.344;16.790;2022-10-26T08:22:18;101077.46;;;13.79;84.67
28701;BME280;15877;52.344;16.790;2022-10-26T08:24:50;101086.21;;;13.95;84.53
28701;BME280;15877;52.344;16.790;2022-10-26T08:27:22;101084.46;;;14.04;84.02
28701;BME280;15877;52.344;16.790;2022-10-26T08:29:54;101091.00;;;14.12;83.78
28701;BME280;15877;52.344;16.790;2022-10-26T08:32:26;101089.77;;;14.19;83.90
28701;BME280;15877;52.344;16.790;2022-10-26T08:34:58;101085.54;;;14.27;83.98
28701;BME280;15877;52.344;16.790;2022-10-26T08:37:31;101089.50;;;14.33;83.29
28701;BME280;15877;52.344;16.790;2022-10-26T08:40:04;101092.73;;;14.36;83.44
28701;BME280;15877;52.344;16.790;2022-10-26T08:42:41;101088.10;;;14.40;83.47
28701;BME280;15877;52.344;16.790;2022-10-26T08:45:20;101091.87;;;14.41;83.55
28701;BME280;15877;52.344;16.790;2022-10-26T08:48:05;101090.35;;;14.46;83.63
28701;BME280;15877;52.344;16.790;2022-10-26T08:50:43;101083.27;;;14.52;83.26
28701;BME280;15877;52.344;16.790;2022-10-26T08:53:23;101078.22;;;14.56;84.27
28701;BME280;15877;52.344;16.790;2022-10-26T08:56:00;101082.20;;;14.61;84.60
28701;BME280;15877;52.344;16.790;2022-10-26T08:58:39;101077.66;;;14.67;84.77
28701;BME280;15877;52.344;16.790;2022-10-26T09:01:14;101074.73;;;14.68;84.39
28701;BME280;15877;52.344;16.790;2022-10-26T09:03:46;101073.20;;;14.73;84.27
28701;BME280;15877;52.344;16.790;2022-10-26T09:06:25;101072.24;;;14.78;84.45
28701;BME280;15877;52.344;16.790;2022-10-26T09:09:06;101074.23;;;14.88;84.67
28701;BME280;15877;52.344;16.790;2022-10-26T09:11:54;101077.98;;;14.89;85.61
28701;BME280;15877;52.344;16.790;2022-10-26T09:14:34;101075.91;;;14.93;85.32
28701;BME280;15877;52.344;16.790;2022-10-26T09:17:19;101077.13;;;15.06;85.22
28701;BME280;15877;52.344;16.790;2022-10-26T09:20:13;101076.59;;;15.08;84.91
28701;BME280;15877;52.344;16.790;2022-10-26T09:22:59;101081.77;;;15.17;85.10
28701;BME280;15877;52.344;16.790;2022-10-26T09:25:39;101082.91;;;15.25;85.56
28701;BME280;15877;52.344;16.790;2022-10-26T09:28:15;101084.22;;;15.28;85.01
28701;BME280;15877;52.344;16.790;2022-10-26T09:30:48;101092.14;;;15.34;85.51
28701;BME280;15877;52.344;16.790;2022-10-26T09:33:23;101089.59;;;15.34;85.68
28701;BME280;15877;52.344;16.790;2022-10-26T09:35:59;101091.63;;;15.47;85.47
28701;BME280;15877;52.344;16.790;2022-10-26T09:38:34;101092.80;;;15.52;86.39
28701;BME280;15877;52.344;16.790;2022-10-26T09:41:19;101085.88;;;15.62;86.28
28701;BME280;15877;52.344;16.790;2022-10-26T09:43:57;101093.86;;;15.59;86.73
28701;BME280;15877;52.344;16.790;2022-10-26T09:46:39;101092.56;;;15.71;86.12
28701;BME280;15877;52.344;16.790;2022-10-26T09:49:16;101095.36;;;15.92;84.27
28701;BME280;15877;52.344;16.790;2022-10-26T09:51:49;101096.52;;;16.03;84.52
28701;BME280;15877;52.344;16.790;2022-10-26T09:54:21;101099.11;;;15.98;84.88
28701;BME280;15877;52.344;16.790;2022-10-26T09:56:57;101101.21;;;16.08;84.30
28701;BME280;15877;52.344;16.790;2022-10-26T09:59:35;101097.87;;;16.18;83.70
28701;BME280;15877;52.344;16.790;2022-10-26T10:02:37;101095.72;;;16.20;83.83
28701;BME280;15877;52.344;16.790;2022-10-26T10:05:23;101096.79;;;16.31;85.16
28701;BME280;15877;52.344;16.790;2022-10-26T10:08:18;101097.18;;;16.40;83.75
28701;BME280;15877;52.344;16.790;2022-10-26T10:10:58;101100.39;;;16.46;82.41
28701;BME280;15877;52.344;16.790;2022-10-26T10:13:31;101104.05;;;16.51;81.75
28701;BME280;15877;52.344;16.790;2022-10-26T10:16:07;101101.77;;;16.54;81.94
28701;BME280;15877;52.344;16.790;2022-10-26T10:18:42;101102.14;;;16.72;81.33
28701;BME280;15877;52.344;16.790;2022-10-26T10:21:34;101095.93;;;16.78;80.81
28701;BME280;15877;52.344;16.790;2022-10-26T10:24:23;101093.23;;;16.69;81.15
28701;BME280;15877;52.344;16.790;2022-10-26T10:27:03;101094.39;;;16.74;80.75
28701;BME280;15877;52.344;16.790;2022-10-26T10:29:40;101094.02;;;16.91;79.28
28701;BME280;15877;52.344;16.790;2022-10-26T10:32:16;101097.60;;;16.98;79.31
28701;BME280;15877;52.344;16.790;2022-10-26T10:34:52;101094.77;;;16.94;79.98
28701;BME280;15877;52.344;16.790;2022-10-26T10:37:28;101091.17;;;16.86;80.80
28701;BME280;15877;52.344;16.790;2022-10-26T10:40:03;101106.25;;;16.96;80.58
28701;BME280;15877;52.344;16.790;2022-10-26T10:42:39;101105.50;;;17.17;79.98
28701;BME280;15877;52.344;16.790;2022-10-26T10:45:15;101110.30;;;17.14;79.51
28701;BME280;15877;52.344;16.790;2022-10-26T10:48:02;101108.69;;;17.14;78.64
28701;BME280;15877;52.344;16.790;2022-10-26T10:50:33;101110.33;;;17.34;78.96
28701;BME280;15877;52.344;16.790;2022-10-26T10:53:17;101114.02;;;17.21;79.03
28701;BME280;15877;52.344;16.790;2022-10-26T10:56:03;101112.30;;;17.29;78.73
28701;BME280;15877;52.344;16.790;2022-10-26T10:58:46;101114.22;;;17.40;78.49
28701;BME280;15877;52.344;16.790;2022-10-26T11:01:21;101102.59;;;17.29;78.36
28701;BME280;15877;52.344;16.790;2022-10-26T11:04:07;101112.54;;;17.53;78.93
28701;BME280;15877;52.344;16.790;2022-10-26T11:06:48;101117.92;;;17.53;77.73
28701;BME280;15877;52.344;16.790;2022-10-26T11:09:25;101119.09;;;17.63;78.05
28701;BME280;15877;52.344;16.790;2022-10-26T11:12:02;101117.78;;;17.80;77.13
28701;BME280;15877;52.344;16.790;2022-10-26T11:14:42;101117.66;;;17.91;76.22
28701;BME280;15877;52.344;16.790;2022-10-26T11:17:21;101122.09;;;17.71;76.21
28701;BME280;15877;52.344;16.790;2022-10-26T11:19:57;101120.05;;;17.87;76.27
28701;BME280;15877;52.344;16.790;2022-10-26T11:22:36;101119.95;;;17.79;75.86
28701;BME280;15877;52.344;16.790;2022-10-26T11:25:14;101118.56;;;17.96;76.20
28701;BME280;15877;52.344;16.790;2022-10-26T11:27:51;101115.42;;;18.00;75.73
28701;BME280;15877;52.344;16.790;2022-10-26T11:30:29;101114.98;;;17.84;75.20
28701;BME280;15877;52.344;16.790;2022-10-26T11:33:08;101117.92;;;17.76;75.47
28701;BME280;15877;52.344;16.790;2022-10-26T11:35:46;101124.41;;;17.91;75.52
28701;BME280;15877;52.344;16.790;2022-10-26T11:38:31;101123.02;;;18.14;75.58
28701;BME280;15877;52.344;16.790;2022-10-26T11:41:26;101111.36;;;18.11;75.38
28701;BME280;15877;52.344;16.790;2022-10-26T11:44:08;101121.58;;;18.22;75.14
28701;BME280;15877;52.344;16.790;2022-10-26T11:46:45;101117.92;;;18.01;74.97
28701;BME280;15877;52.344;16.790;2022-10-26T11:49:21;101114.96;;;18.05;74.21
28701;BME280;15877;52.344;16.790;2022-10-26T11:52:01;101113.30;;;18.20;74.33
28701;BME280;15877;52.344;16.790;2022-10-26T11:54:39;101112.90;;;18.11;74.66
28701;BME280;15877;52.344;16.790;2022-10-26T11:57:15;101116.77;;;18.24;74.44
28701;BME280;15877;52.344;16.790;2022-10-26T11:59:50;101112.16;;;18.50;74.46
28701;BME280;15877;52.344;16.790;2022-10-26T12:02:24;101112.81;;;18.52;73.61
28701;BME280;15877;52.344;16.790;2022-10-26T12:05:02;101110.96;;;18.50;73.99
28701;BME280;15877;52.344;16.790;2022-10-26T12:07:38;101110.08;;;18.55;73.32
28701;BME280;15877;52.344;16.790;2022-10-26T12:10:20;101106.38;;;18.48;73.15
28701;BME280;15877;52.344;16.790;2022-10-26T12:13:03;101112.23;;;18.42;73.22
28701;BME280;15877;52.344;16.790;2022-10-26T12:15:42;101112.17;;;18.58;73.18
28701;BME280;15877;52.344;16.790;2022-10-26T12:18:42;101111.13;;;18.61;72.42
28701;BME280;15877;52.344;16.790;2022-10-26T12:21:27;101110.89;;;18.66;72.78
28701;BME280;15877;52.344;16.790;2022-10-26T12:24:01;101111.61;;;18.70;72.64
28701;BME280;15877;52.344;16.790;2022-10-26T12:26:54;101114.58;;;18.72;70.92
28701;BME280;15877;52.344;16.790;2022-10-26T12:29:46;101112.00;;;18.76;70.66
28701;BME280;15877;52.344;16.790;2022-10-26T12:32:52;101110.89;;;18.73;70.75
28701;BME280;15877;52.344;16.790;2022-10-26T12:35:41;101106.95;;;18.73;71.27
28701;BME280;15877;52.344;16.790;2022-10-26T12:38:57;101108.39;;;18.77;70.89
28701;BME280;15877;52.344;16.790;2022-10-26T12:41:30;101094.32;;;18.72;70.84
28701;BME280;15877;52.344;16.790;2022-10-26T12:44:31;101104.60;;;18.77;70.54
28701;BME280;15877;52.344;16.790;2022-10-26T12:47:04;101107.73;;;18.74;70.35
28701;BME280;15877;52.344;16.790;2022-10-26T12:49:59;101104.61;;;18.85;70.16
28701;BME280;15877;52.344;16.790;2022-10-26T12:52:49;101104.91;;;18.91;70.31
28701;BME280;15877;52.344;16.790;2022-10-26T12:55:59;101109.27;;;18.88;69.45
28701;BME280;15877;52.344;16.790;2022-10-26T13:02:04;101104.41;;;18.97;69.36
28701;BME280;15877;52.344;16.790;2022-10-26T13:05:23;101102.17;;;18.97;68.72
28701;BME280;15877;52.344;16.790;2022-10-26T13:08:03;101103.95;;;18.94;68.43
28701;BME280;15877;52.344;16.790;2022-10-26T13:10:39;101100.96;;;18.96;67.78
28701;BME280;15877;52.344;16.790;2022-10-26T13:13:23;101097.27;;;18.93;67.83
28701;BME280;15877;52.344;16.790;2022-10-26T13:15:56;101090.91;;;18.99;69.03
28701;BME280;15877;52.344;16.790;2022-10-26T13:18:29;101090.19;;;18.97;68.32
28701;BME280;15877;52.344;16.790;2022-10-26T13:21:06;101089.63;;;18.96;67.41
28701;BME280;15877;52.344;16.790;2022-10-26T13:23:42;101089.11;;;19.04;67.92
28701;BME280;15877;52.344;16.790;2022-10-26T13:26:17;101088.31;;;19.05;67.71
28701;BME280;15877;52.344;16.790;2022-10-26T13:28:52;101076.03;;;18.91;66.60
28701;BME280;15877;52.344;16.790;2022-10-26T13:34:15;101090.26;;;19.00;65.40
28701;BME280;15877;52.344;16.790;2022-10-26T13:36:54;101089.22;;;18.99;65.66
28701;BME280;15877;52.344;16.790;2022-10-26T13:39:31;101093.09;;;18.90;66.58
28701;BME280;15877;52.344;16.790;2022-10-26T13:42:10;101091.87;;;18.97;66.55